TAF KBRO
KBRO 280520Z 2806/2906 33013KT P6SM OVC010 FM281400 34010G16KT P6SM OVC018 FM282000 34012KT P6SM SCT025 OVC035 FM290100 33007KT P6SM SCT040=
METAR KBRO
SPECI KBRO 280842Z AUTO 32006KT 10SM OVC009 13/11 A3009 RMK AO2 CIG 007V011 T01330111
SPECI COR KBRO 280815Z AUTO 32007KT 10SM BKN011 OVC018 13/11 A3007 RMK AO2 T01280111
COR KBRO 280753Z AUTO 33006KT 10SM OVC016 13/11 A3008 RMK AO2 SLP183 T01280111 ?
SPECI KBRO 280741Z AUTO 33007KT 10SM SCT013 OVC018 13/11 A3008 RMK AO2 T01280111 ?
SPECI KBRO 280730Z AUTO 32006KT 10SM SCT006 BKN013 OVC018 13/11 A3008 RMK AO2 T01280111 ?
WC KBRO
WS KBRO
WV KBRO